sensor_id;sensor_type;location;lat;lon;timestamp;P1;durP1;ratioP1;P2;durP2;ratioP2
7191;SDS011;3637;51.494;11.958;2022-12-18T00:02:07;16.93;;;10.83;;
7191;SDS011;3637;51.494;11.958;2022-12-18T00:05:09;23.67;;;12.00;;
7191;SDS011;3637;51.494;11.958;2022-12-18T00:08:11;18.10;;;10.43;;
7191;SDS011;3637;51.494;11.958;2022-12-18T00:11:15;24.90;;;13.07;;
7191;SDS011;3637;51.494;11.958;2022-12-18T00:14:18;18.20;;;10.60;;
7191;SDS011;3637;51.494;11.958;2022-12-18T00:17:20;17.60;;;10.93;;
7191;SDS011;3637;51.494;11.958;2022-12-18T00:20:22;17.40;;;10.67;;
7191;SDS011;3637;51.494;11.958;2022-12-18T00:23:25;19.43;;;10.17;;
7191;SDS011;3637;51.494;11.958;2022-12-18T00:26:29;25.97;;;11.07;;
7191;SDS011;3637;51.494;11.958;2022-12-18T00:29:32;23.13;;;11.03;;
7191;SDS011;3637;51.494;11.958;2022-12-18T00:32:34;19.10;;;10.43;;
7191;SDS011;3637;51.494;11.958;2022-12-18T00:35:37;18.77;;;10.73;;
7191;SDS011;3637;51.494;11.958;2022-12-18T00:38:39;12.37;;;8.80;;
7191;SDS011;3637;51.494;11.958;2022-12-18T00:41:43;20.13;;;10.10;;
7191;SDS011;3637;51.494;11.958;2022-12-18T00:45:02;15.37;;;9.13;;
7191;SDS011;3637;51.494;11.958;2022-12-18T00:48:05;21.00;;;9.83;;
7191;SDS011;3637;51.494;11.958;2022-12-18T00:51:07;15.47;;;9.80;;
7191;SDS011;3637;51.494;11.958;2022-12-18T00:54:08;13.43;;;8.77;;
7191;SDS011;3637;51.494;11.958;2022-12-18T00:57:12;16.77;;;7.47;;
7191;SDS011;3637;51.494;11.958;2022-12-18T01:00:14;14.70;;;10.33;;
7191;SDS011;3637;51.494;11.958;2022-12-18T01:03:16;16.07;;;9.30;;
7191;SDS011;3637;51.494;11.958;2022-12-18T01:06:18;12.67;;;9.27;;
7191;SDS011;3637;51.494;11.958;2022-12-18T01:09:20;12.27;;;8.57;;
7191;SDS011;3637;51.494;11.958;2022-12-18T01:12:23;20.07;;;11.33;;
7191;SDS011;3637;51.494;11.958;2022-12-18T01:15:25;17.70;;;9.67;;
7191;SDS011;3637;51.494;11.958;2022-12-18T01:18:27;18.90;;;10.60;;
7191;SDS011;3637;51.494;11.958;2022-12-18T01:21:29;14.27;;;8.63;;
7191;SDS011;3637;51.494;11.958;2022-12-18T01:24:31;19.40;;;9.33;;
7191;SDS011;3637;51.494;11.958;2022-12-18T01:27:34;15.50;;;8.63;;
7191;SDS011;3637;51.494;11.958;2022-12-18T01:30:36;18.97;;;10.23;;
7191;SDS011;3637;51.494;11.958;2022-12-18T01:33:38;19.93;;;10.40;;
7191;SDS011;3637;51.494;11.958;2022-12-18T01:36:40;15.07;;;9.60;;
7191;SDS011;3637;51.494;11.958;2022-12-18T01:39:42;16.17;;;9.83;;
7191;SDS011;3637;51.494;11.958;2022-12-18T01:42:45;17.33;;;10.47;;
7191;SDS011;3637;51.494;11.958;2022-12-18T01:45:52;13.33;;;9.27;;
7191;SDS011;3637;51.494;11.958;2022-12-18T01:48:55;13.23;;;8.47;;
7191;SDS011;3637;51.494;11.958;2022-12-18T01:51:59;24.63;;;10.00;;
7191;SDS011;3637;51.494;11.958;2022-12-18T01:55:02;14.13;;;10.03;;
7191;SDS011;3637;51.494;11.958;2022-12-18T01:58:08;17.47;;;10.37;;
7191;SDS011;3637;51.494;11.958;2022-12-18T02:01:10;22.37;;;9.63;;
7191;SDS011;3637;51.494;11.958;2022-12-18T02:04:21;20.33;;;10.80;;
7191;SDS011;3637;51.494;11.958;2022-12-18T02:07:25;16.73;;;8.90;;
7191;SDS011;3637;51.494;11.958;2022-12-18T02:10:38;17.23;;;9.50;;
7191;SDS011;3637;51.494;11.958;2022-12-18T02:13:51;20.27;;;9.00;;
7191;SDS011;3637;51.494;11.958;2022-12-18T02:16:57;22.77;;;11.57;;
7191;SDS011;3637;51.494;11.958;2022-12-18T02:20:05;20.30;;;11.33;;
7191;SDS011;3637;51.494;11.958;2022-12-18T02:23:17;19.83;;;10.43;;
7191;SDS011;3637;51.494;11.958;2022-12-18T02:26:31;22.70;;;11.90;;
7191;SDS011;3637;51.494;11.958;2022-12-18T02:29:36;20.83;;;10.53;;
7191;SDS011;3637;51.494;11.958;2022-12-18T02:32:42;11.47;;;9.20;;
7191;SDS011;3637;51.494;11.958;2022-12-18T02:35:47;15.87;;;8.00;;
7191;SDS011;3637;51.494;11.958;2022-12-18T02:38:50;14.07;;;9.03;;
7191;SDS011;3637;51.494;11.958;2022-12-18T02:41:55;13.90;;;8.40;;
7191;SDS011;3637;51.494;11.958;2022-12-18T02:44:58;17.40;;;9.73;;
7191;SDS011;3637;51.494;11.958;2022-12-18T02:48:00;11.03;;;7.80;;
7191;SDS011;3637;51.494;11.958;2022-12-18T02:51:03;16.67;;;9.47;;
7191;SDS011;3637;51.494;11.958;2022-12-18T02:54:10;24.73;;;9.70;;
7191;SDS011;3637;51.494;11.958;2022-12-18T02:57:23;13.00;;;7.90;;
7191;SDS011;3637;51.494;11.958;2022-12-18T03:00:33;14.47;;;8.87;;
7191;SDS011;3637;51.494;11.958;2022-12-18T03:03:41;17.73;;;10.90;;
7191;SDS011;3637;51.494;11.958;2022-12-18T03:06:47;16.47;;;9.23;;
7191;SDS011;3637;51.494;11.958;2022-12-18T03:09:51;21.60;;;8.37;;
7191;SDS011;3637;51.494;11.958;2022-12-18T03:12:58;14.83;;;10.63;;
7191;SDS011;3637;51.494;11.958;2022-12-18T03:16:05;17.90;;;8.77;;
7191;SDS011;3637;51.494;11.958;2022-12-18T03:19:11;16.90;;;9.57;;
7191;SDS011;3637;51.494;11.958;2022-12-18T03:22:17;16.20;;;9.00;;
7191;SDS011;3637;51.494;11.958;2022-12-18T03:25:21;16.50;;;9.30;;
7191;SDS011;3637;51.494;11.958;2022-12-18T03:28:24;20.47;;;9.33;;
7191;SDS011;3637;51.494;11.958;2022-12-18T03:31:33;18.73;;;9.03;;
7191;SDS011;3637;51.494;11.958;2022-12-18T03:34:35;18.23;;;10.23;;
7191;SDS011;3637;51.494;11.958;2022-12-18T03:37:39;13.30;;;8.33;;
7191;SDS011;3637;51.494;11.958;2022-12-18T03:40:45;19.27;;;10.10;;
7191;SDS011;3637;51.494;11.958;2022-12-18T03:43:54;16.70;;;7.50;;
7191;SDS011;3637;51.494;11.958;2022-12-18T03:47:02;19.73;;;9.20;;
7191;SDS011;3637;51.494;11.958;2022-12-18T03:50:10;14.87;;;8.13;;
7191;SDS011;3637;51.494;11.958;2022-12-18T03:53:18;17.23;;;9.77;;
7191;SDS011;3637;51.494;11.958;2022-12-18T03:56:26;16.77;;;8.47;;
7191;SDS011;3637;51.494;11.958;2022-12-18T03:59:34;18.53;;;9.27;;
7191;SDS011;3637;51.494;11.958;2022-12-18T04:02:37;18.43;;;8.97;;
7191;SDS011;3637;51.494;11.958;2022-12-18T04:05:43;16.23;;;8.73;;
7191;SDS011;3637;51.494;11.958;2022-12-18T04:08:49;19.07;;;11.00;;
7191;SDS011;3637;51.494;11.958;2022-12-18T04:11:51;12.53;;;8.27;;
7191;SDS011;3637;51.494;11.958;2022-12-18T04:14:55;12.67;;;8.90;;
7191;SDS011;3637;51.494;11.958;2022-12-18T04:17:57;15.23;;;8.33;;
7191;SDS011;3637;51.494;11.958;2022-12-18T04:20:59;17.23;;;9.17;;
7191;SDS011;3637;51.494;11.958;2022-12-18T04:24:01;13.23;;;8.37;;
7191;SDS011;3637;51.494;11.958;2022-12-18T04:27:03;14.93;;;10.67;;
7191;SDS011;3637;51.494;11.958;2022-12-18T04:30:07;13.70;;;8.47;;
7191;SDS011;3637;51.494;11.958;2022-12-18T04:33:10;10.27;;;7.17;;
7191;SDS011;3637;51.494;11.958;2022-12-18T04:36:12;10.90;;;7.13;;
7191;SDS011;3637;51.494;11.958;2022-12-18T04:39:18;16.00;;;8.27;;
7191;SDS011;3637;51.494;11.958;2022-12-18T04:42:20;12.10;;;8.63;;
7191;SDS011;3637;51.494;11.958;2022-12-18T04:45:23;14.07;;;8.97;;
7191;SDS011;3637;51.494;11.958;2022-12-18T04:48:25;17.93;;;8.00;;
7191;SDS011;3637;51.494;11.958;2022-12-18T04:51:27;13.20;;;10.37;;
7191;SDS011;3637;51.494;11.958;2022-12-18T04:54:29;11.93;;;8.00;;
7191;SDS011;3637;51.494;11.958;2022-12-18T04:57:31;15.40;;;9.87;;
7191;SDS011;3637;51.494;11.958;2022-12-18T05:00:34;13.90;;;8.97;;
7191;SDS011;3637;51.494;11.958;2022-12-18T05:03:36;16.67;;;8.33;;
7191;SDS011;3637;51.494;11.958;2022-12-18T05:06:39;16.30;;;9.07;;
7191;SDS011;3637;51.494;11.958;2022-12-18T05:09:41;18.10;;;9.53;;
7191;SDS011;3637;51.494;11.958;2022-12-18T05:12:43;16.47;;;9.30;;
7191;SDS011;3637;51.494;11.958;2022-12-18T05:16:00;11.67;;;7.87;;
7191;SDS011;3637;51.494;11.958;2022-12-18T05:19:02;12.53;;;8.67;;
7191;SDS011;3637;51.494;11.958;2022-12-18T05:22:04;14.13;;;9.90;;
7191;SDS011;3637;51.494;11.958;2022-12-18T05:25:06;10.00;;;8.37;;
7191;SDS011;3637;51.494;11.958;2022-12-18T05:28:09;14.43;;;7.53;;
7191;SDS011;3637;51.494;11.958;2022-12-18T05:31:12;14.03;;;7.53;;
7191;SDS011;3637;51.494;11.958;2022-12-18T05:34:14;13.30;;;8.47;;
7191;SDS011;3637;51.494;11.958;2022-12-18T05:37:16;16.80;;;8.50;;
7191;SDS011;3637;51.494;11.958;2022-12-18T05:40:18;11.87;;;6.57;;
7191;SDS011;3637;51.494;11.958;2022-12-18T05:43:21;12.20;;;7.80;;
7191;SDS011;3637;51.494;11.958;2022-12-18T05:46:25;13.67;;;7.30;;
7191;SDS011;3637;51.494;11.958;2022-12-18T05:49:27;11.50;;;7.93;;
7191;SDS011;3637;51.494;11.958;2022-12-18T05:52:30;12.73;;;8.20;;
7191;SDS011;3637;51.494;11.958;2022-12-18T05:55:32;9.77;;;8.20;;
7191;SDS011;3637;51.494;11.958;2022-12-18T05:58:34;13.20;;;8.07;;
7191;SDS011;3637;51.494;11.958;2022-12-18T06:01:38;8.97;;;6.40;;
7191;SDS011;3637;51.494;11.958;2022-12-18T06:04:40;20.60;;;7.57;;
7191;SDS011;3637;51.494;11.958;2022-12-18T06:07:42;19.30;;;7.90;;
7191;SDS011;3637;51.494;11.958;2022-12-18T06:10:49;14.33;;;8.30;;
7191;SDS011;3637;51.494;11.958;2022-12-18T06:13:53;9.57;;;6.10;;
7191;SDS011;3637;51.494;11.958;2022-12-18T06:16:57;11.37;;;7.23;;
7191;SDS011;3637;51.494;11.958;2022-12-18T06:19:59;16.63;;;9.70;;
7191;SDS011;3637;51.494;11.958;2022-12-18T06:23:01;10.40;;;6.43;;
7191;SDS011;3637;51.494;11.958;2022-12-18T06:26:04;11.73;;;8.17;;
7191;SDS011;3637;51.494;11.958;2022-12-18T06:29:06;10.93;;;7.70;;
7191;SDS011;3637;51.494;11.958;2022-12-18T06:32:10;15.13;;;6.70;;
7191;SDS011;3637;51.494;11.958;2022-12-18T06:35:12;11.00;;;5.80;;
7191;SDS011;3637;51.494;11.958;2022-12-18T06:38:14;16.80;;;8.03;;
7191;SDS011;3637;51.494;11.958;2022-12-18T06:41:16;9.30;;;7.87;;
7191;SDS011;3637;51.494;11.958;2022-12-18T06:44:20;9.27;;;7.50;;
7191;SDS011;3637;51.494;11.958;2022-12-18T06:47:23;8.67;;;5.87;;
7191;SDS011;3637;51.494;11.958;2022-12-18T06:50:26;8.07;;;5.97;;
7191;SDS011;3637;51.494;11.958;2022-12-18T06:53:28;7.63;;;5.47;;
7191;SDS011;3637;51.494;11.958;2022-12-18T06:56:30;9.90;;;7.90;;
7191;SDS011;3637;51.494;11.958;2022-12-18T06:59:32;7.63;;;6.60;;
7191;SDS011;3637;51.494;11.958;2022-12-18T07:02:35;9.57;;;6.10;;
7191;SDS011;3637;51.494;11.958;2022-12-18T07:05:39;7.87;;;4.93;;
7191;SDS011;3637;51.494;11.958;2022-12-18T07:08:41;7.53;;;6.83;;
7191;SDS011;3637;51.494;11.958;2022-12-18T07:11:43;7.87;;;5.60;;
7191;SDS011;3637;51.494;11.958;2022-12-18T07:14:45;7.90;;;7.13;;
7191;SDS011;3637;51.494;11.958;2022-12-18T07:17:48;8.27;;;6.57;;
7191;SDS011;3637;51.494;11.958;2022-12-18T07:20:50;12.57;;;5.50;;
7191;SDS011;3637;51.494;11.958;2022-12-18T07:23:52;10.77;;;7.37;;
7191;SDS011;3637;51.494;11.958;2022-12-18T07:26:54;11.17;;;7.07;;
7191;SDS011;3637;51.494;11.958;2022-12-18T07:29:58;10.67;;;7.33;;
7191;SDS011;3637;51.494;11.958;2022-12-18T07:33:01;10.60;;;5.83;;
7191;SDS011;3637;51.494;11.958;2022-12-18T07:36:04;10.93;;;5.53;;
7191;SDS011;3637;51.494;11.958;2022-12-18T07:39:08;10.70;;;6.53;;
7191;SDS011;3637;51.494;11.958;2022-12-18T07:42:11;9.83;;;6.47;;
7191;SDS011;3637;51.494;11.958;2022-12-18T07:45:31;8.60;;;6.67;;
7191;SDS011;3637;51.494;11.958;2022-12-18T07:48:35;5.50;;;5.10;;
7191;SDS011;3637;51.494;11.958;2022-12-18T07:51:37;5.43;;;4.93;;
7191;SDS011;3637;51.494;11.958;2022-12-18T07:54:38;7.73;;;5.60;;
7191;SDS011;3637;51.494;11.958;2022-12-18T07:57:44;6.77;;;5.93;;
7191;SDS011;3637;51.494;11.958;2022-12-18T08:00:45;7.40;;;5.97;;
7191;SDS011;3637;51.494;11.958;2022-12-18T08:03:49;12.60;;;7.93;;
7191;SDS011;3637;51.494;11.958;2022-12-18T08:06:51;11.50;;;6.77;;
7191;SDS011;3637;51.494;11.958;2022-12-18T08:09:53;8.03;;;5.67;;
7191;SDS011;3637;51.494;11.958;2022-12-18T08:12:55;7.13;;;4.63;;
7191;SDS011;3637;51.494;11.958;2022-12-18T08:15:57;13.47;;;6.77;;
7191;SDS011;3637;51.494;11.958;2022-12-18T08:19:02;9.40;;;6.47;;
7191;SDS011;3637;51.494;11.958;2022-12-18T08:22:04;15.70;;;6.47;;
7191;SDS011;3637;51.494;11.958;2022-12-18T08:25:06;9.13;;;5.87;;
7191;SDS011;3637;51.494;11.958;2022-12-18T08:28:08;10.50;;;7.57;;
7191;SDS011;3637;51.494;11.958;2022-12-18T08:31:11;9.77;;;5.67;;
7191;SDS011;3637;51.494;11.958;2022-12-18T08:34:14;10.83;;;7.00;;
7191;SDS011;3637;51.494;11.958;2022-12-18T08:37:16;7.33;;;5.90;;
7191;SDS011;3637;51.494;11.958;2022-12-18T08:40:21;8.43;;;5.60;;
7191;SDS011;3637;51.494;11.958;2022-12-18T08:43:24;13.00;;;6.93;;
7191;SDS011;3637;51.494;11.958;2022-12-18T08:46:43;8.33;;;6.37;;
7191;SDS011;3637;51.494;11.958;2022-12-18T08:49:47;11.60;;;7.57;;
7191;SDS011;3637;51.494;11.958;2022-12-18T08:52:49;11.23;;;7.27;;
7191;SDS011;3637;51.494;11.958;2022-12-18T08:55:51;14.67;;;6.93;;
7191;SDS011;3637;51.494;11.958;2022-12-18T08:58:54;12.53;;;7.50;;
7191;SDS011;3637;51.494;11.958;2022-12-18T09:01:56;8.87;;;6.53;;
7191;SDS011;3637;51.494;11.958;2022-12-18T09:04:59;18.00;;;7.30;;
7191;SDS011;3637;51.494;11.958;2022-12-18T09:08:01;16.00;;;7.63;;
7191;SDS011;3637;51.494;11.958;2022-12-18T09:11:03;10.10;;;7.00;;
7191;SDS011;3637;51.494;11.958;2022-12-18T09:14:05;8.60;;;7.27;;
7191;SDS011;3637;51.494;11.958;2022-12-18T09:17:07;10.73;;;7.53;;
7191;SDS011;3637;51.494;11.958;2022-12-18T09:20:11;12.27;;;7.57;;
7191;SDS011;3637;51.494;11.958;2022-12-18T09:23:12;10.57;;;6.90;;
7191;SDS011;3637;51.494;11.958;2022-12-18T09:26:15;14.13;;;7.63;;
7191;SDS011;3637;51.494;11.958;2022-12-18T09:29:17;13.17;;;7.83;;
7191;SDS011;3637;51.494;11.958;2022-12-18T09:32:19;12.27;;;8.60;;
7191;SDS011;3637;51.494;11.958;2022-12-18T09:35:22;16.77;;;8.00;;
7191;SDS011;3637;51.494;11.958;2022-12-18T09:38:24;16.13;;;8.60;;
7191;SDS011;3637;51.494;11.958;2022-12-18T09:41:32;12.87;;;8.10;;
7191;SDS011;3637;51.494;11.958;2022-12-18T09:44:41;16.73;;;9.52;;
7191;SDS011;3637;51.494;11.958;2022-12-18T09:47:46;12.30;;;6.80;;
7191;SDS011;3637;51.494;11.958;2022-12-18T09:50:51;8.03;;;5.10;;
7191;SDS011;3637;51.494;11.958;2022-12-18T09:54:03;8.03;;;5.13;;
7191;SDS011;3637;51.494;11.958;2022-12-18T09:57:10;10.30;;;6.33;;
7191;SDS011;3637;51.494;11.958;2022-12-18T10:00:15;9.23;;;5.80;;
7191;SDS011;3637;51.494;11.958;2022-12-18T10:03:20;10.40;;;5.43;;
7191;SDS011;3637;51.494;11.958;2022-12-18T10:06:24;5.40;;;4.43;;
7191;SDS011;3637;51.494;11.958;2022-12-18T10:09:33;7.30;;;5.43;;
7191;SDS011;3637;51.494;11.958;2022-12-18T10:12:42;5.27;;;4.17;;
7191;SDS011;3637;51.494;11.958;2022-12-18T10:15:51;10.57;;;5.53;;
7191;SDS011;3637;51.494;11.958;2022-12-18T10:19:04;7.53;;;4.30;;
7191;SDS011;3637;51.494;11.958;2022-12-18T10:22:24;5.97;;;4.53;;
7191;SDS011;3637;51.494;11.958;2022-12-18T10:25:34;8.23;;;4.77;;
7191;SDS011;3637;51.494;11.958;2022-12-18T10:28:40;6.50;;;4.43;;
7191;SDS011;3637;51.494;11.958;2022-12-18T10:31:43;8.20;;;5.30;;
7191;SDS011;3637;51.494;11.958;2022-12-18T10:34:46;9.40;;;4.70;;
7191;SDS011;3637;51.494;11.958;2022-12-18T10:38:00;6.60;;;4.90;;
7191;SDS011;3637;51.494;11.958;2022-12-18T10:41:06;7.07;;;5.13;;
7191;SDS011;3637;51.494;11.958;2022-12-18T10:44:27;5.70;;;4.70;;
7191;SDS011;3637;51.494;11.958;2022-12-18T10:47:29;7.73;;;5.17;;
7191;SDS011;3637;51.494;11.958;2022-12-18T10:50:32;6.30;;;4.50;;
7191;SDS011;3637;51.494;11.958;2022-12-18T10:53:37;9.37;;;5.60;;
7191;SDS011;3637;51.494;11.958;2022-12-18T10:56:41;8.20;;;5.33;;
7191;SDS011;3637;51.494;11.958;2022-12-18T11:45:52;8.17;;;5.00;;
7191;SDS011;3637;51.494;11.958;2022-12-18T11:48:58;9.70;;;5.73;;
7191;SDS011;3637;51.494;11.958;2022-12-18T11:52:07;8.63;;;5.20;;
7191;SDS011;3637;51.494;11.958;2022-12-18T11:55:19;11.35;;;7.95;;
7191;SDS011;3637;51.494;11.958;2022-12-18T12:01:55;14.02;;;9.40;;
7191;SDS011;3637;51.494;11.958;2022-12-18T12:05:10;9.85;;;6.68;;
7191;SDS011;3637;51.494;11.958;2022-12-18T12:08:22;6.90;;;4.57;;
7191;SDS011;3637;51.494;11.958;2022-12-18T12:11:36;6.43;;;4.70;;
7191;SDS011;3637;51.494;11.958;2022-12-18T12:14:47;5.63;;;4.53;;
7191;SDS011;3637;51.494;11.958;2022-12-18T12:17:59;10.43;;;5.30;;
7191;SDS011;3637;51.494;11.958;2022-12-18T12:21:10;9.07;;;4.67;;
7191;SDS011;3637;51.494;11.958;2022-12-18T12:24:22;5.70;;;4.97;;
7191;SDS011;3637;51.494;11.958;2022-12-18T12:27:36;7.77;;;5.10;;
7191;SDS011;3637;51.494;11.958;2022-12-18T12:30:47;7.00;;;4.33;;
7191;SDS011;3637;51.494;11.958;2022-12-18T12:34:04;6.93;;;5.47;;
7191;SDS011;3637;51.494;11.958;2022-12-18T12:37:17;9.97;;;6.03;;
7191;SDS011;3637;51.494;11.958;2022-12-18T12:40:27;7.10;;;5.33;;
7191;SDS011;3637;51.494;11.958;2022-12-18T12:43:35;6.53;;;5.17;;
7191;SDS011;3637;51.494;11.958;2022-12-18T12:46:40;6.97;;;4.93;;
7191;SDS011;3637;51.494;11.958;2022-12-18T12:49:43;7.93;;;4.50;;
7191;SDS011;3637;51.494;11.958;2022-12-18T12:52:48;5.73;;;4.20;;
7191;SDS011;3637;51.494;11.958;2022-12-18T12:55:52;8.43;;;3.87;;
7191;SDS011;3637;51.494;11.958;2022-12-18T12:58:59;5.40;;;3.80;;
7191;SDS011;3637;51.494;11.958;2022-12-18T13:02:12;7.77;;;4.30;;
7191;SDS011;3637;51.494;11.958;2022-12-18T13:05:20;7.13;;;5.23;;
7191;SDS011;3637;51.494;11.958;2022-12-18T13:08:26;5.27;;;4.20;;
7191;SDS011;3637;51.494;11.958;2022-12-18T13:11:31;7.00;;;4.37;;
7191;SDS011;3637;51.494;11.958;2022-12-18T13:14:56;5.87;;;4.03;;
7191;SDS011;3637;51.494;11.958;2022-12-18T13:18:16;5.40;;;4.47;;
7191;SDS011;3637;51.494;11.958;2022-12-18T13:21:21;9.53;;;4.60;;
7191;SDS011;3637;51.494;11.958;2022-12-18T13:24:28;7.77;;;5.50;;
7191;SDS011;3637;51.494;11.958;2022-12-18T13:30:59;7.10;;;4.37;;
7191;SDS011;3637;51.494;11.958;2022-12-18T13:34:09;8.27;;;4.77;;
7191;SDS011;3637;51.494;11.958;2022-12-18T13:44:10;6.07;;;4.47;;
7191;SDS011;3637;51.494;11.958;2022-12-18T13:47:26;6.90;;;4.87;;
7191;SDS011;3637;51.494;11.958;2022-12-18T13:50:32;8.67;;;5.63;;
7191;SDS011;3637;51.494;11.958;2022-12-18T13:53:36;8.60;;;5.37;;
7191;SDS011;3637;51.494;11.958;2022-12-18T13:56:42;10.07;;;5.60;;
7191;SDS011;3637;51.494;11.958;2022-12-18T13:59:46;9.50;;;6.30;;
7191;SDS011;3637;51.494;11.958;2022-12-18T14:02:50;10.27;;;6.03;;
7191;SDS011;3637;51.494;11.958;2022-12-18T14:05:53;8.83;;;5.67;;
7191;SDS011;3637;51.494;11.958;2022-12-18T14:08:58;9.83;;;7.17;;
7191;SDS011;3637;51.494;11.958;2022-12-18T14:12:00;9.73;;;5.97;;
7191;SDS011;3637;51.494;11.958;2022-12-18T14:15:19;14.43;;;7.47;;
7191;SDS011;3637;51.494;11.958;2022-12-18T14:18:28;11.33;;;7.17;;
7191;SDS011;3637;51.494;11.958;2022-12-18T14:21:34;8.90;;;6.83;;
7191;SDS011;3637;51.494;11.958;2022-12-18T14:24:38;12.77;;;6.67;;
7191;SDS011;3637;51.494;11.958;2022-12-18T14:27:41;17.87;;;6.33;;
7191;SDS011;3637;51.494;11.958;2022-12-18T14:30:45;11.83;;;8.03;;
7191;SDS011;3637;51.494;11.958;2022-12-18T14:33:48;14.33;;;7.23;;
7191;SDS011;3637;51.494;11.958;2022-12-18T14:36:51;14.70;;;6.80;;
7191;SDS011;3637;51.494;11.958;2022-12-18T14:39:54;10.13;;;6.67;;
7191;SDS011;3637;51.494;11.958;2022-12-18T14:43:00;8.20;;;5.90;;
7191;SDS011;3637;51.494;11.958;2022-12-18T14:46:41;15.00;;;7.63;;
7191;SDS011;3637;51.494;11.958;2022-12-18T14:49:47;11.73;;;8.23;;
7191;SDS011;3637;51.494;11.958;2022-12-18T14:52:49;10.77;;;6.57;;
7191;SDS011;3637;51.494;11.958;2022-12-18T14:55:51;14.17;;;7.33;;
7191;SDS011;3637;51.494;11.958;2022-12-18T14:58:54;13.13;;;7.80;;
7191;SDS011;3637;51.494;11.958;2022-12-18T15:01:59;7.27;;;5.93;;
7191;SDS011;3637;51.494;11.958;2022-12-18T15:05:15;10.07;;;6.50;;
7191;SDS011;3637;51.494;11.958;2022-12-18T15:08:30;14.67;;;8.30;;
7191;SDS011;3637;51.494;11.958;2022-12-18T15:11:43;15.67;;;8.90;;
7191;SDS011;3637;51.494;11.958;2022-12-18T15:14:47;14.40;;;7.27;;
7191;SDS011;3637;51.494;11.958;2022-12-18T15:17:55;13.63;;;7.87;;
7191;SDS011;3637;51.494;11.958;2022-12-18T15:21:03;8.90;;;7.17;;
7191;SDS011;3637;51.494;11.958;2022-12-18T15:24:14;17.10;;;8.33;;
7191;SDS011;3637;51.494;11.958;2022-12-18T15:27:23;24.43;;;13.10;;
7191;SDS011;3637;51.494;11.958;2022-12-18T15:30:57;21.10;;;11.93;;
7191;SDS011;3637;51.494;11.958;2022-12-18T15:34:01;15.07;;;7.93;;
7191;SDS011;3637;51.494;11.958;2022-12-18T15:37:13;13.43;;;8.10;;
7191;SDS011;3637;51.494;11.958;2022-12-18T15:40:16;13.33;;;7.87;;
7191;SDS011;3637;51.494;11.958;2022-12-18T15:43:20;12.53;;;8.43;;
7191;SDS011;3637;51.494;11.958;2022-12-18T15:46:35;13.03;;;7.53;;
7191;SDS011;3637;51.494;11.958;2022-12-18T15:49:37;15.23;;;8.80;;
7191;SDS011;3637;51.494;11.958;2022-12-18T15:52:41;13.30;;;7.63;;
7191;SDS011;3637;51.494;11.958;2022-12-18T15:55:44;13.30;;;8.77;;
7191;SDS011;3637;51.494;11.958;2022-12-18T15:59:04;15.07;;;7.47;;
7191;SDS011;3637;51.494;11.958;2022-12-18T16:02:13;14.77;;;8.03;;
7191;SDS011;3637;51.494;11.958;2022-12-18T16:05:19;11.87;;;7.77;;
7191;SDS011;3637;51.494;11.958;2022-12-18T16:08:23;14.60;;;7.27;;
7191;SDS011;3637;51.494;11.958;2022-12-18T16:11:26;12.10;;;7.50;;
7191;SDS011;3637;51.494;11.958;2022-12-18T16:14:41;10.40;;;7.03;;
7191;SDS011;3637;51.494;11.958;2022-12-18T16:17:44;11.23;;;8.00;;
7191;SDS011;3637;51.494;11.958;2022-12-18T16:20:47;13.23;;;7.90;;
7191;SDS011;3637;51.494;11.958;2022-12-18T16:23:50;14.43;;;9.13;;
7191;SDS011;3637;51.494;11.958;2022-12-18T16:26:52;10.73;;;7.23;;
7191;SDS011;3637;51.494;11.958;2022-12-18T16:29:54;16.90;;;7.70;;
7191;SDS011;3637;51.494;11.958;2022-12-18T16:32:56;13.97;;;8.37;;
7191;SDS011;3637;51.494;11.958;2022-12-18T16:35:59;15.37;;;7.83;;
7191;SDS011;3637;51.494;11.958;2022-12-18T16:39:05;11.70;;;8.10;;
7191;SDS011;3637;51.494;11.958;2022-12-18T16:42:09;10.63;;;7.63;;
7191;SDS011;3637;51.494;11.958;2022-12-18T16:45:15;13.73;;;7.57;;
7191;SDS011;3637;51.494;11.958;2022-12-18T16:48:18;15.83;;;9.87;;
7191;SDS011;3637;51.494;11.958;2022-12-18T16:51:20;16.83;;;9.13;;
7191;SDS011;3637;51.494;11.958;2022-12-18T16:54:24;15.80;;;9.17;;
7191;SDS011;3637;51.494;11.958;2022-12-18T16:57:29;14.87;;;8.80;;
7191;SDS011;3637;51.494;11.958;2022-12-18T17:00:31;19.10;;;9.90;;
7191;SDS011;3637;51.494;11.958;2022-12-18T17:03:33;16.77;;;9.47;;
7191;SDS011;3637;51.494;11.958;2022-12-18T17:06:35;19.03;;;7.63;;
7191;SDS011;3637;51.494;11.958;2022-12-18T17:09:41;15.73;;;7.90;;
7191;SDS011;3637;51.494;11.958;2022-12-18T17:12:43;15.23;;;9.63;;
7191;SDS011;3637;51.494;11.958;2022-12-18T17:15:45;17.77;;;10.20;;
7191;SDS011;3637;51.494;11.958;2022-12-18T17:18:47;15.43;;;9.50;;
7191;SDS011;3637;51.494;11.958;2022-12-18T17:21:50;16.60;;;10.20;;
7191;SDS011;3637;51.494;11.958;2022-12-18T17:24:53;12.47;;;7.70;;
7191;SDS011;3637;51.494;11.958;2022-12-18T17:27:55;17.90;;;10.43;;
7191;SDS011;3637;51.494;11.958;2022-12-18T17:30:57;14.13;;;8.67;;
7191;SDS011;3637;51.494;11.958;2022-12-18T17:34:00;15.13;;;8.37;;
7191;SDS011;3637;51.494;11.958;2022-12-18T17:37:02;13.83;;;8.80;;
7191;SDS011;3637;51.494;11.958;2022-12-18T17:40:06;15.37;;;8.93;;
7191;SDS011;3637;51.494;11.958;2022-12-18T17:43:09;17.53;;;9.60;;
7191;SDS011;3637;51.494;11.958;2022-12-18T17:46:12;17.47;;;9.43;;
7191;SDS011;3637;51.494;11.958;2022-12-18T17:49:15;15.83;;;9.40;;
7191;SDS011;3637;51.494;11.958;2022-12-18T17:52:17;14.40;;;9.00;;
7191;SDS011;3637;51.494;11.958;2022-12-18T17:55:20;16.87;;;10.23;;
7191;SDS011;3637;51.494;11.958;2022-12-18T17:58:22;16.63;;;9.97;;
7191;SDS011;3637;51.494;11.958;2022-12-18T18:01:24;14.47;;;9.37;;
7191;SDS011;3637;51.494;11.958;2022-12-18T18:04:28;15.73;;;9.93;;
7191;SDS011;3637;51.494;11.958;2022-12-18T18:07:30;13.53;;;8.40;;
7191;SDS011;3637;51.494;11.958;2022-12-18T18:10:36;14.13;;;8.97;;
7191;SDS011;3637;51.494;11.958;2022-12-18T18:13:38;16.00;;;9.07;;
7191;SDS011;3637;51.494;11.958;2022-12-18T18:17:03;16.47;;;9.27;;
7191;SDS011;3637;51.494;11.958;2022-12-18T18:20:05;13.80;;;8.23;;
7191;SDS011;3637;51.494;11.958;2022-12-18T18:23:07;19.77;;;9.63;;
7191;SDS011;3637;51.494;11.958;2022-12-18T18:26:11;16.27;;;9.70;;
7191;SDS011;3637;51.494;11.958;2022-12-18T18:29:16;14.23;;;8.67;;
7191;SDS011;3637;51.494;11.958;2022-12-18T18:32:18;16.63;;;9.60;;
7191;SDS011;3637;51.494;11.958;2022-12-18T18:35:20;17.80;;;8.90;;
7191;SDS011;3637;51.494;11.958;2022-12-18T18:38:22;13.80;;;9.00;;
7191;SDS011;3637;51.494;11.958;2022-12-18T18:41:27;17.73;;;9.50;;
7191;SDS011;3637;51.494;11.958;2022-12-18T18:44:30;15.23;;;9.00;;
7191;SDS011;3637;51.494;11.958;2022-12-18T18:47:32;15.07;;;8.77;;
7191;SDS011;3637;51.494;11.958;2022-12-18T18:50:36;11.10;;;7.63;;
7191;SDS011;3637;51.494;11.958;2022-12-18T18:53:39;11.67;;;8.60;;
7191;SDS011;3637;51.494;11.958;2022-12-18T18:56:44;17.90;;;9.17;;
7191;SDS011;3637;51.494;11.958;2022-12-18T18:59:46;15.07;;;8.70;;
7191;SDS011;3637;51.494;11.958;2022-12-18T19:02:48;12.50;;;8.33;;
7191;SDS011;3637;51.494;11.958;2022-12-18T19:05:51;16.03;;;8.17;;
7191;SDS011;3637;51.494;11.958;2022-12-18T19:08:55;11.07;;;7.73;;
7191;SDS011;3637;51.494;11.958;2022-12-18T19:11:58;15.70;;;9.50;;
7191;SDS011;3637;51.494;11.958;2022-12-18T19:15:18;11.73;;;7.93;;
7191;SDS011;3637;51.494;11.958;2022-12-18T19:18:20;13.43;;;8.70;;
7191;SDS011;3637;51.494;11.958;2022-12-18T19:21:23;13.37;;;8.10;;
7191;SDS011;3637;51.494;11.958;2022-12-18T19:24:26;14.60;;;8.97;;
7191;SDS011;3637;51.494;11.958;2022-12-18T19:27:30;14.00;;;8.97;;
7191;SDS011;3637;51.494;11.958;2022-12-18T19:30:32;12.10;;;7.67;;
7191;SDS011;3637;51.494;11.958;2022-12-18T19:33:40;14.37;;;8.77;;
7191;SDS011;3637;51.494;11.958;2022-12-18T19:36:43;13.57;;;8.17;;
7191;SDS011;3637;51.494;11.958;2022-12-18T19:39:47;19.13;;;9.10;;